sensor_id;sensor_type;location;lat;lon;timestamp;temperature;humidity
32895;DHT22;19251;49.484;8.260;2023-05-10T00:02:16;18.00;28.10
32895;DHT22;19251;49.484;8.260;2023-05-10T00:07:18;18.00;28.00
32895;DHT22;19251;49.484;8.260;2023-05-10T00:12:20;18.00;28.10
32895;DHT22;19251;49.484;8.260;2023-05-10T00:17:22;17.90;28.10
32895;DHT22;19251;49.484;8.260;2023-05-10T00:22:24;17.80;28.20
32895;DHT22;19251;49.484;8.260;2023-05-10T00:27:26;17.80;28.10
32895;DHT22;19251;49.484;8.260;2023-05-10T00:32:28;17.80;28.20
32895;DHT22;19251;49.484;8.260;2023-05-10T00:37:31;17.80;28.20
32895;DHT22;19251;49.484;8.260;2023-05-10T00:42:33;17.70;28.10
32895;DHT22;19251;49.484;8.260;2023-05-10T00:47:35;17.60;28.20
32895;DHT22;19251;49.484;8.260;2023-05-10T00:52:37;17.50;28.30
32895;DHT22;19251;49.484;8.260;2023-05-10T00:57:40;17.40;28.30
32895;DHT22;19251;49.484;8.260;2023-05-10T01:07:45;17.50;28.40
32895;DHT22;19251;49.484;8.260;2023-05-10T01:12:47;17.40;28.40
32895;DHT22;19251;49.484;8.260;2023-05-10T01:17:49;17.50;28.40
32895;DHT22;19251;49.484;8.260;2023-05-10T01:33:16;17.50;28.60
32895;DHT22;19251;49.484;8.260;2023-05-10T01:38:29;17.40;28.50
32895;DHT22;19251;49.484;8.260;2023-05-10T01:43:37;17.30;28.50
32895;DHT22;19251;49.484;8.260;2023-05-10T01:48:47;17.40;28.70
32895;DHT22;19251;49.484;8.260;2023-05-10T01:53:49;17.40;28.70
32895;DHT22;19251;49.484;8.260;2023-05-10T01:58:53;17.30;28.70
32895;DHT22;19251;49.484;8.260;2023-05-10T02:03:57;17.30;28.70
32895;DHT22;19251;49.484;8.260;2023-05-10T02:09:00;17.30;28.70
32895;DHT22;19251;49.484;8.260;2023-05-10T02:14:05;17.40;28.80
32895;DHT22;19251;49.484;8.260;2023-05-10T02:19:09;17.40;28.80
32895;DHT22;19251;49.484;8.260;2023-05-10T02:24:12;17.40;28.70
32895;DHT22;19251;49.484;8.260;2023-05-10T02:29:15;17.40;28.70
32895;DHT22;19251;49.484;8.260;2023-05-10T02:34:18;17.30;28.60
32895;DHT22;19251;49.484;8.260;2023-05-10T02:39:21;17.30;28.60
32895;DHT22;19251;49.484;8.260;2023-05-10T02:44:24;17.30;28.70
32895;DHT22;19251;49.484;8.260;2023-05-10T02:49:28;17.30;28.70
32895;DHT22;19251;49.484;8.260;2023-05-10T02:54:32;17.50;28.90
32895;DHT22;19251;49.484;8.260;2023-05-10T02:59:34;17.30;28.70
32895;DHT22;19251;49.484;8.260;2023-05-10T03:04:37;17.30;28.70
32895;DHT22;19251;49.484;8.260;2023-05-10T03:09:39;17.20;28.60
32895;DHT22;19251;49.484;8.260;2023-05-10T03:14:54;17.20;28.70
32895;DHT22;19251;49.484;8.260;2023-05-10T03:20:04;17.00;28.50
32895;DHT22;19251;49.484;8.260;2023-05-10T03:25:09;17.10;28.60
32895;DHT22;19251;49.484;8.260;2023-05-10T03:30:13;17.00;28.50
32895;DHT22;19251;49.484;8.260;2023-05-10T03:35:16;17.00;28.50
32895;DHT22;19251;49.484;8.260;2023-05-10T03:45:33;16.90;28.50
32895;DHT22;19251;49.484;8.260;2023-05-10T03:50:35;16.90;28.60
32895;DHT22;19251;49.484;8.260;2023-05-10T03:55:38;16.80;28.60
32895;DHT22;19251;49.484;8.260;2023-05-10T04:00:40;16.80;28.70
32895;DHT22;19251;49.484;8.260;2023-05-10T04:05:47;16.80;28.70
32895;DHT22;19251;49.484;8.260;2023-05-10T04:10:49;16.80;28.80
32895;DHT22;19251;49.484;8.260;2023-05-10T04:15:51;16.80;28.80
32895;DHT22;19251;49.484;8.260;2023-05-10T04:20:53;16.80;28.70
32895;DHT22;19251;49.484;8.260;2023-05-10T04:25:59;16.80;28.70
32895;DHT22;19251;49.484;8.260;2023-05-10T04:31:02;16.90;28.80
32895;DHT22;19251;49.484;8.260;2023-05-10T04:36:05;16.90;28.80
32895;DHT22;19251;49.484;8.260;2023-05-10T04:41:08;17.00;28.80
32895;DHT22;19251;49.484;8.260;2023-05-10T04:46:10;17.00;28.70
32895;DHT22;19251;49.484;8.260;2023-05-10T04:51:12;17.10;28.70
32895;DHT22;19251;49.484;8.260;2023-05-10T04:56:14;17.10;28.70
32895;DHT22;19251;49.484;8.260;2023-05-10T05:01:16;17.10;28.60
32895;DHT22;19251;49.484;8.260;2023-05-10T05:06:18;17.00;28.70
32895;DHT22;19251;49.484;8.260;2023-05-10T05:11:22;17.00;28.90
32895;DHT22;19251;49.484;8.260;2023-05-10T05:16:24;17.10;29.10
32895;DHT22;19251;49.484;8.260;2023-05-10T05:21:27;17.10;29.30
32895;DHT22;19251;49.484;8.260;2023-05-10T05:26:30;17.30;29.40
32895;DHT22;19251;49.484;8.260;2023-05-10T05:31:32;17.40;29.50
32895;DHT22;19251;49.484;8.260;2023-05-10T05:36:35;17.40;29.60
32895;DHT22;19251;49.484;8.260;2023-05-10T05:41:39;17.50;29.70
32895;DHT22;19251;49.484;8.260;2023-05-10T05:46:41;17.90;29.90
32895;DHT22;19251;49.484;8.260;2023-05-10T05:51:43;18.00;29.40
32895;DHT22;19251;49.484;8.260;2023-05-10T05:56:46;17.80;29.10
32895;DHT22;19251;49.484;8.260;2023-05-10T06:01:48;18.00;28.90
32895;DHT22;19251;49.484;8.260;2023-05-10T06:06:51;18.20;28.60
32895;DHT22;19251;49.484;8.260;2023-05-10T06:11:53;18.30;28.20
32895;DHT22;19251;49.484;8.260;2023-05-10T06:16:55;18.30;27.70
32895;DHT22;19251;49.484;8.260;2023-05-10T06:21:57;18.40;27.80
32895;DHT22;19251;49.484;8.260;2023-05-10T06:26:59;18.50;27.40
32895;DHT22;19251;49.484;8.260;2023-05-10T06:32:02;18.50;26.90
32895;DHT22;19251;49.484;8.260;2023-05-10T06:37:04;18.50;26.70
32895;DHT22;19251;49.484;8.260;2023-05-10T06:42:06;18.50;26.60
32895;DHT22;19251;49.484;8.260;2023-05-10T06:47:08;18.50;26.30
32895;DHT22;19251;49.484;8.260;2023-05-10T06:52:10;18.50;26.20
32895;DHT22;19251;49.484;8.260;2023-05-10T06:57:12;18.60;25.90
32895;DHT22;19251;49.484;8.260;2023-05-10T07:02:31;18.50;25.90
32895;DHT22;19251;49.484;8.260;2023-05-10T07:07:33;18.60;25.90
32895;DHT22;19251;49.484;8.260;2023-05-10T07:12:35;18.60;25.80
32895;DHT22;19251;49.484;8.260;2023-05-10T07:17:37;18.80;25.40
32895;DHT22;19251;49.484;8.260;2023-05-10T07:22:39;18.90;25.30
32895;DHT22;19251;49.484;8.260;2023-05-10T07:27:41;19.10;24.90
32895;DHT22;19251;49.484;8.260;2023-05-10T07:32:44;19.30;24.80
32895;DHT22;19251;49.484;8.260;2023-05-10T07:37:46;19.50;24.50
32895;DHT22;19251;49.484;8.260;2023-05-10T07:42:49;19.60;24.30
32895;DHT22;19251;49.484;8.260;2023-05-10T07:47:51;19.80;24.00
32895;DHT22;19251;49.484;8.260;2023-05-10T07:52:53;20.00;23.80
32895;DHT22;19251;49.484;8.260;2023-05-10T07:57:55;20.00;23.70
32895;DHT22;19251;49.484;8.260;2023-05-10T08:02:57;20.20;22.90
32895;DHT22;19251;49.484;8.260;2023-05-10T08:07:59;20.40;22.50
32895;DHT22;19251;49.484;8.260;2023-05-10T08:13:02;20.40;22.30
32895;DHT22;19251;49.484;8.260;2023-05-10T08:18:04;20.40;22.10
32895;DHT22;19251;49.484;8.260;2023-05-10T08:23:06;20.30;21.40
32895;DHT22;19251;49.484;8.260;2023-05-10T08:28:08;20.20;21.50
32895;DHT22;19251;49.484;8.260;2023-05-10T08:33:12;20.00;21.70
32895;DHT22;19251;49.484;8.260;2023-05-10T08:38:14;20.00;21.70
32895;DHT22;19251;49.484;8.260;2023-05-10T08:43:17;20.10;20.90
32895;DHT22;19251;49.484;8.260;2023-05-10T08:48:19;20.00;20.90
32895;DHT22;19251;49.484;8.260;2023-05-10T08:53:24;20.30;21.10
32895;DHT22;19251;49.484;8.260;2023-05-10T08:58:27;20.30;20.40
32895;DHT22;19251;49.484;8.260;2023-05-10T09:03:30;20.50;20.70
32895;DHT22;19251;49.484;8.260;2023-05-10T09:08:32;20.50;19.80
32895;DHT22;19251;49.484;8.260;2023-05-10T09:13:35;20.50;19.70
32895;DHT22;19251;49.484;8.260;2023-05-10T09:18:37;20.40;18.80
32895;DHT22;19251;49.484;8.260;2023-05-10T09:23:42;20.20;19.10
32895;DHT22;19251;49.484;8.260;2023-05-10T09:28:52;19.90;19.20
32895;DHT22;19251;49.484;8.260;2023-05-10T09:33:55;19.80;19.30
32895;DHT22;19251;49.484;8.260;2023-05-10T09:38:58;19.70;19.40
32895;DHT22;19251;49.484;8.260;2023-05-10T09:44:00;19.70;19.10
32895;DHT22;19251;49.484;8.260;2023-05-10T09:49:02;19.70;19.10
32895;DHT22;19251;49.484;8.260;2023-05-10T09:54:13;19.60;19.20
32895;DHT22;19251;49.484;8.260;2023-05-10T09:59:16;19.50;19.00
32895;DHT22;19251;49.484;8.260;2023-05-10T10:04:19;19.50;18.90
32895;DHT22;19251;49.484;8.260;2023-05-10T10:09:22;19.40;19.10
32895;DHT22;19251;49.484;8.260;2023-05-10T10:14:24;19.50;19.40
32895;DHT22;19251;49.484;8.260;2023-05-10T10:19:26;19.80;19.70
32895;DHT22;19251;49.484;8.260;2023-05-10T10:24:28;20.10;19.10
32895;DHT22;19251;49.484;8.260;2023-05-10T10:29:39;20.40;18.80
32895;DHT22;19251;49.484;8.260;2023-05-10T10:34:45;20.70;18.20
32895;DHT22;19251;49.484;8.260;2023-05-10T10:39:48;21.00;17.90
32895;DHT22;19251;49.484;8.260;2023-05-10T10:44:54;21.10;16.80
32895;DHT22;19251;49.484;8.260;2023-05-10T10:50:12;21.10;16.40
32895;DHT22;19251;49.484;8.260;2023-05-10T10:55:16;21.10;16.50
32895;DHT22;19251;49.484;8.260;2023-05-10T11:00:27;21.00;16.70
32895;DHT22;19251;49.484;8.260;2023-05-10T11:10:38;21.00;16.00
32895;DHT22;19251;49.484;8.260;2023-05-10T11:15:43;21.00;16.00
32895;DHT22;19251;49.484;8.260;2023-05-10T11:20:50;21.00;15.50
32895;DHT22;19251;49.484;8.260;2023-05-10T11:25:52;21.00;15.40
32895;DHT22;19251;49.484;8.260;2023-05-10T11:30:55;21.00;15.30
32895;DHT22;19251;49.484;8.260;2023-05-10T11:35:58;21.10;15.20
32895;DHT22;19251;49.484;8.260;2023-05-10T11:41:00;21.10;15.10
32895;DHT22;19251;49.484;8.260;2023-05-10T11:46:02;21.20;14.10
32895;DHT22;19251;49.484;8.260;2023-05-10T11:51:04;21.20;14.30
32895;DHT22;19251;49.484;8.260;2023-05-10T11:56:07;21.30;14.10
32895;DHT22;19251;49.484;8.260;2023-05-10T12:01:10;21.30;13.40
32895;DHT22;19251;49.484;8.260;2023-05-10T12:06:12;21.50;13.60
32895;DHT22;19251;49.484;8.260;2023-05-10T12:11:14;21.70;13.60
32895;DHT22;19251;49.484;8.260;2023-05-10T12:16:18;21.80;13.20
32895;DHT22;19251;49.484;8.260;2023-05-10T12:21:21;21.80;13.30
32895;DHT22;19251;49.484;8.260;2023-05-10T12:26:26;21.90;13.00
32895;DHT22;19251;49.484;8.260;2023-05-10T12:31:29;21.90;13.00
32895;DHT22;19251;49.484;8.260;2023-05-10T12:36:31;21.90;12.90
32895;DHT22;19251;49.484;8.260;2023-05-10T12:41:34;22.10;12.80
32895;DHT22;19251;49.484;8.260;2023-05-10T12:46:36;22.10;12.50
32895;DHT22;19251;49.484;8.260;2023-05-10T12:51:38;22.30;12.20
32895;DHT22;19251;49.484;8.260;2023-05-10T12:56:40;22.40;11.90
32895;DHT22;19251;49.484;8.260;2023-05-10T13:01:44;22.70;11.70
32895;DHT22;19251;49.484;8.260;2023-05-10T13:11:49;23.10;10.40
32895;DHT22;19251;49.484;8.260;2023-05-10T13:16:51;23.20;10.20
32895;DHT22;19251;49.484;8.260;2023-05-10T13:26:56;23.60;9.30
32895;DHT22;19251;49.484;8.260;2023-05-10T13:31:58;23.80;8.10
32895;DHT22;19251;49.484;8.260;2023-05-10T13:37:00;24.00;8.00
32895;DHT22;19251;49.484;8.260;2023-05-10T13:42:03;24.10;7.40
32895;DHT22;19251;49.484;8.260;2023-05-10T13:47:05;24.10;7.20
32895;DHT22;19251;49.484;8.260;2023-05-10T13:52:08;24.30;7.20
32895;DHT22;19251;49.484;8.260;2023-05-10T13:57:11;24.50;7.00
32895;DHT22;19251;49.484;8.260;2023-05-10T14:02:15;24.70;6.30
32895;DHT22;19251;49.484;8.260;2023-05-10T14:07:17;24.90;6.30
32895;DHT22;19251;49.484;8.260;2023-05-10T14:12:19;25.30;5.50
32895;DHT22;19251;49.484;8.260;2023-05-10T14:17:21;25.60;5.10
32895;DHT22;19251;49.484;8.260;2023-05-10T14:22:24;25.70;3.10
32895;DHT22;19251;49.484;8.260;2023-05-10T14:27:26;25.30;3.10
32895;DHT22;19251;49.484;8.260;2023-05-10T14:32:28;25.10;3.20
32895;DHT22;19251;49.484;8.260;2023-05-10T14:37:31;24.80;2.80
32895;DHT22;19251;49.484;8.260;2023-05-10T14:42:33;24.80;3.30
32895;DHT22;19251;49.484;8.260;2023-05-10T14:47:35;25.10;3.00
32895;DHT22;19251;49.484;8.260;2023-05-10T14:52:37;25.40;3.00
32895;DHT22;19251;49.484;8.260;2023-05-10T14:57:39;26.10;2.80
32895;DHT22;19251;49.484;8.260;2023-05-10T15:02:41;26.60;2.50
32895;DHT22;19251;49.484;8.260;2023-05-10T15:07:43;27.50;1.50
32895;DHT22;19251;49.484;8.260;2023-05-10T15:12:46;28.40;1.00
32895;DHT22;19251;49.484;8.260;2023-05-10T15:17:48;28.70;1.00
32895;DHT22;19251;49.484;8.260;2023-05-10T15:22:50;29.10;1.00
32895;DHT22;19251;49.484;8.260;2023-05-10T15:27:52;29.30;1.00
32895;DHT22;19251;49.484;8.260;2023-05-10T15:32:54;29.40;1.00
32895;DHT22;19251;49.484;8.260;2023-05-10T15:37:56;29.20;1.00
32895;DHT22;19251;49.484;8.260;2023-05-10T15:42:58;28.90;1.00
32895;DHT22;19251;49.484;8.260;2023-05-10T15:48:01;28.70;1.00
32895;DHT22;19251;49.484;8.260;2023-05-10T15:53:03;28.60;1.00
32895;DHT22;19251;49.484;8.260;2023-05-10T15:58:05;28.90;1.00
32895;DHT22;19251;49.484;8.260;2023-05-10T16:03:07;29.20;1.00
32895;DHT22;19251;49.484;8.260;2023-05-10T16:08:09;29.20;1.00
32895;DHT22;19251;49.484;8.260;2023-05-10T16:13:11;28.90;1.00
32895;DHT22;19251;49.484;8.260;2023-05-10T16:18:15;28.80;1.00
32895;DHT22;19251;49.484;8.260;2023-05-10T16:23:19;28.60;1.00
32895;DHT22;19251;49.484;8.260;2023-05-10T16:28:21;28.30;1.00
32895;DHT22;19251;49.484;8.260;2023-05-10T16:33:23;27.70;1.00
32895;DHT22;19251;49.484;8.260;2023-05-10T16:38:25;27.40;1.00
32895;DHT22;19251;49.484;8.260;2023-05-10T16:43:27;27.20;1.00
32895;DHT22;19251;49.484;8.260;2023-05-10T16:48:30;26.90;1.00
32895;DHT22;19251;49.484;8.260;2023-05-10T16:53:32;26.80;1.00
32895;DHT22;19251;49.484;8.260;2023-05-10T16:58:34;26.20;1.00
32895;DHT22;19251;49.484;8.260;2023-05-10T17:03:36;25.80;1.00
32895;DHT22;19251;49.484;8.260;2023-05-10T17:08:38;25.60;1.00
32895;DHT22;19251;49.484;8.260;2023-05-10T17:13:40;25.40;1.00
32895;DHT22;19251;49.484;8.260;2023-05-10T17:18:42;25.20;1.00
32895;DHT22;19251;49.484;8.260;2023-05-10T17:23:46;25.00;1.00
32895;DHT22;19251;49.484;8.260;2023-05-10T17:28:49;24.80;1.00
32895;DHT22;19251;49.484;8.260;2023-05-10T17:33:53;24.70;1.00
32895;DHT22;19251;49.484;8.260;2023-05-10T17:38:55;24.40;1.00
32895;DHT22;19251;49.484;8.260;2023-05-10T17:43:57;24.30;1.20
32895;DHT22;19251;49.484;8.260;2023-05-10T17:48:59;24.10;1.40
32895;DHT22;19251;49.484;8.260;2023-05-10T17:54:01;23.80;1.80
32895;DHT22;19251;49.484;8.260;2023-05-10T17:59:04;23.70;2.10
32895;DHT22;19251;49.484;8.260;2023-05-10T18:04:06;23.60;2.40
32895;DHT22;19251;49.484;8.260;2023-05-10T18:09:08;23.50;2.30
32895;DHT22;19251;49.484;8.260;2023-05-10T18:14:11;23.40;2.30
32895;DHT22;19251;49.484;8.260;2023-05-10T18:19:13;23.20;2.30
32895;DHT22;19251;49.484;8.260;2023-05-10T18:24:15;23.10;2.50
32895;DHT22;19251;49.484;8.260;2023-05-10T18:29:24;23.00;2.60
32895;DHT22;19251;49.484;8.260;2023-05-10T18:34:26;22.80;2.80
32895;DHT22;19251;49.484;8.260;2023-05-10T18:39:28;22.50;3.20
32895;DHT22;19251;49.484;8.260;2023-05-10T18:44:30;22.30;3.30
32895;DHT22;19251;49.484;8.260;2023-05-10T18:49:32;22.10;3.90
32895;DHT22;19251;49.484;8.260;2023-05-10T18:54:34;21.80;4.50
32895;DHT22;19251;49.484;8.260;2023-05-10T18:59:37;21.60;4.70
32895;DHT22;19251;49.484;8.260;2023-05-10T19:04:39;21.30;5.20
32895;DHT22;19251;49.484;8.260;2023-05-10T19:14:43;20.90;6.00
32895;DHT22;19251;49.484;8.260;2023-05-10T19:19:45;20.90;6.00
32895;DHT22;19251;49.484;8.260;2023-05-10T19:24:47;20.40;6.20
32895;DHT22;19251;49.484;8.260;2023-05-10T19:29:50;20.30;6.30
32895;DHT22;19251;49.484;8.260;2023-05-10T19:34:53;20.20;6.50
32895;DHT22;19251;49.484;8.260;2023-05-10T19:39:55;19.90;6.60
32895;DHT22;19251;49.484;8.260;2023-05-10T19:44:57;19.90;6.80
32895;DHT22;19251;49.484;8.260;2023-05-10T19:50:00;20.00;7.00
32895;DHT22;19251;49.484;8.260;2023-05-10T19:55:02;19.80;6.90
32895;DHT22;19251;49.484;8.260;2023-05-10T20:00:06;19.70;7.10
32895;DHT22;19251;49.484;8.260;2023-05-10T20:05:11;19.70;7.60
32895;DHT22;19251;49.484;8.260;2023-05-10T20:10:15;19.60;7.60
32895;DHT22;19251;49.484;8.260;2023-05-10T20:15:17;19.50;7.80
32895;DHT22;19251;49.484;8.260;2023-05-10T20:20:22;19.40;7.70
32895;DHT22;19251;49.484;8.260;2023-05-10T20:25:25;19.30;7.90
32895;DHT22;19251;49.484;8.260;2023-05-10T20:30:27;19.10;8.30
32895;DHT22;19251;49.484;8.260;2023-05-10T20:35:29;19.10;8.50
32895;DHT22;19251;49.484;8.260;2023-05-10T20:40:32;19.00;8.70
32895;DHT22;19251;49.484;8.260;2023-05-10T20:45:37;18.90;8.70
32895;DHT22;19251;49.484;8.260;2023-05-10T20:50:39;18.90;9.00
32895;DHT22;19251;49.484;8.260;2023-05-10T20:55:41;18.90;9.20
32895;DHT22;19251;49.484;8.260;2023-05-10T21:00:43;18.80;9.50
32895;DHT22;19251;49.484;8.260;2023-05-10T21:05:45;18.80;9.60
32895;DHT22;19251;49.484;8.260;2023-05-10T21:10:48;18.70;9.80
32895;DHT22;19251;49.484;8.260;2023-05-10T21:15:50;18.70;9.90
32895;DHT22;19251;49.484;8.260;2023-05-10T21:20:52;18.70;10.10
32895;DHT22;19251;49.484;8.260;2023-05-10T21:25:54;18.60;10.30
32895;DHT22;19251;49.484;8.260;2023-05-10T21:30:56;18.50;10.50
32895;DHT22;19251;49.484;8.260;2023-05-10T21:35:58;18.40;10.70
32895;DHT22;19251;49.484;8.260;2023-05-10T21:41:00;18.20;10.80
32895;DHT22;19251;49.484;8.260;2023-05-10T21:46:06;18.20;11.10
32895;DHT22;19251;49.484;8.260;2023-05-10T21:51:09;18.10;11.40
32895;DHT22;19251;49.484;8.260;2023-05-10T21:56:11;18.00;11.70
32895;DHT22;19251;49.484;8.260;2023-05-10T22:01:14;17.90;11.70
32895;DHT22;19251;49.484;8.260;2023-05-10T22:06:18;17.90;11.80
32895;DHT22;19251;49.484;8.260;2023-05-10T22:11:20;17.70;12.10
32895;DHT22;19251;49.484;8.260;2023-05-10T22:16:22;17.70;12.20
32895;DHT22;19251;49.484;8.260;2023-05-10T22:21:24;17.60;12.50
32895;DHT22;19251;49.484;8.260;2023-05-10T22:26:26;17.50;12.70
32895;DHT22;19251;49.484;8.260;2023-05-10T22:31:28;17.50;13.10
32895;DHT22;19251;49.484;8.260;2023-05-10T22:36:31;17.40;13.20
32895;DHT22;19251;49.484;8.260;2023-05-10T22:41:33;17.30;13.50
32895;DHT22;19251;49.484;8.260;2023-05-10T22:46:35;17.20;13.80
32895;DHT22;19251;49.484;8.260;2023-05-10T22:51:38;17.00;14.00
32895;DHT22;19251;49.484;8.260;2023-05-10T22:56:40;16.90;14.10
32895;DHT22;19251;49.484;8.260;2023-05-10T23:01:42;16.80;14.50
32895;DHT22;19251;49.484;8.260;2023-05-10T23:06:44;16.70;14.80
32895;DHT22;19251;49.484;8.260;2023-05-10T23:11:47;16.50;15.00
32895;DHT22;19251;49.484;8.260;2023-05-10T23:16:49;16.30;15.10
32895;DHT22;19251;49.484;8.260;2023-05-10T23:21:51;16.30;15.70
32895;DHT22;19251;49.484;8.260;2023-05-10T23:26:53;16.40;15.80
32895;DHT22;19251;49.484;8.260;2023-05-10T23:31:55;16.00;15.80
32895;DHT22;19251;49.484;8.260;2023-05-10T23:36:57;15.90;16.00
32895;DHT22;19251;49.484;8.260;2023-05-10T23:41:59;15.80;16.20
32895;DHT22;19251;49.484;8.260;2023-05-10T23:47:01;15.80;16.30
32895;DHT22;19251;49.484;8.260;2023-05-10T23:52:03;15.70;16.40
32895;DHT22;19251;49.484;8.260;2023-05-10T23:57:05;15.60;16.60
